sensor_id;sensor_type;location;lat;lon;timestamp;temperature;humidity
46029;DHT22;31763;48.180;7.904;2022-08-20T05:56:12;17.10;99.90
46029;DHT22;31763;48.180;7.904;2022-08-20T05:58:38;17.10;99.90
46029;DHT22;31763;48.180;7.904;2022-08-20T06:01:05;17.10;99.90
46029;DHT22;31763;48.180;7.904;2022-08-20T06:03:32;17.10;99.90
46029;DHT22;31763;48.180;7.904;2022-08-20T06:06:17;17.00;99.90
46029;DHT22;31763;48.180;7.904;2022-08-20T06:09:06;17.00;99.90
46029;DHT22;31763;48.180;7.904;2022-08-20T06:11:33;17.10;99.90
46029;DHT22;31763;48.180;7.904;2022-08-20T06:14:03;17.10;99.90
46029;DHT22;31763;48.180;7.904;2022-08-20T06:16:30;17.10;99.90
46029;DHT22;31763;48.180;7.904;2022-08-20T06:18:57;17.20;99.90
46029;DHT22;31763;48.180;7.904;2022-08-20T06:21:24;17.30;99.90
46029;DHT22;31763;48.180;7.904;2022-08-20T06:23:51;17.30;99.90
46029;DHT22;31763;48.180;7.904;2022-08-20T06:26:25;17.30;99.90
46029;DHT22;31763;48.180;7.904;2022-08-20T06:29:00;17.20;99.90
46029;DHT22;31763;48.180;7.904;2022-08-20T06:31:27;17.20;99.90
46029;DHT22;31763;48.180;7.904;2022-08-20T06:33:54;17.20;99.90
46029;DHT22;31763;48.180;7.904;2022-08-20T06:36:21;17.10;99.90
46029;DHT22;31763;48.180;7.904;2022-08-20T06:38:48;17.00;99.90
46029;DHT22;31763;48.180;7.904;2022-08-20T06:41:15;17.20;99.90
46029;DHT22;31763;48.180;7.904;2022-08-20T06:43:42;17.00;99.90
46029;DHT22;31763;48.180;7.904;2022-08-20T06:46:09;17.00;99.90
46029;DHT22;31763;48.180;7.904;2022-08-20T06:48:36;17.00;99.90
46029;DHT22;31763;48.180;7.904;2022-08-20T06:51:03;17.00;99.90
46029;DHT22;31763;48.180;7.904;2022-08-20T06:53:31;17.10;99.90
46029;DHT22;31763;48.180;7.904;2022-08-20T06:55:58;17.00;99.90
46029;DHT22;31763;48.180;7.904;2022-08-20T06:58:25;16.90;99.90
46029;DHT22;31763;48.180;7.904;2022-08-20T07:01:07;17.00;99.90
46029;DHT22;31763;48.180;7.904;2022-08-20T07:03:40;17.00;99.90
46029;DHT22;31763;48.180;7.904;2022-08-20T07:06:22;16.90;99.90
46029;DHT22;31763;48.180;7.904;2022-08-20T07:08:51;16.80;99.90
46029;DHT22;31763;48.180;7.904;2022-08-20T07:11:19;16.80;99.90
46029;DHT22;31763;48.180;7.904;2022-08-20T07:13:53;16.80;99.90
46029;DHT22;31763;48.180;7.904;2022-08-20T07:16:21;16.90;99.90
46029;DHT22;31763;48.180;7.904;2022-08-20T07:18:48;16.80;99.90
46029;DHT22;31763;48.180;7.904;2022-08-20T07:21:15;16.80;99.90
46029;DHT22;31763;48.180;7.904;2022-08-20T07:23:42;16.80;99.90
46029;DHT22;31763;48.180;7.904;2022-08-20T07:26:09;16.80;99.90
46029;DHT22;31763;48.180;7.904;2022-08-20T07:28:36;16.70;99.90
46029;DHT22;31763;48.180;7.904;2022-08-20T07:31:02;16.60;99.90
46029;DHT22;31763;48.180;7.904;2022-08-20T07:33:48;16.50;99.90
46029;DHT22;31763;48.180;7.904;2022-08-20T07:36:16;16.50;99.90
46029;DHT22;31763;48.180;7.904;2022-08-20T07:38:43;16.40;99.90
46029;DHT22;31763;48.180;7.904;2022-08-20T07:41:12;16.40;99.90
46029;DHT22;31763;48.180;7.904;2022-08-20T07:43:40;16.20;99.90
46029;DHT22;31763;48.180;7.904;2022-08-20T07:46:08;16.30;99.90
46029;DHT22;31763;48.180;7.904;2022-08-20T07:48:36;16.40;99.90
46029;DHT22;31763;48.180;7.904;2022-08-20T07:51:05;16.40;99.90
46029;DHT22;31763;48.180;7.904;2022-08-20T07:53:35;16.60;99.90
46029;DHT22;31763;48.180;7.904;2022-08-20T07:56:03;16.60;99.90
46029;DHT22;31763;48.180;7.904;2022-08-20T07:58:31;16.60;99.90
46029;DHT22;31763;48.180;7.904;2022-08-20T08:01:01;16.60;99.90
46029;DHT22;31763;48.180;7.904;2022-08-20T08:03:28;16.60;99.90
46029;DHT22;31763;48.180;7.904;2022-08-20T08:06:16;16.70;99.90
46029;DHT22;31763;48.180;7.904;2022-08-20T08:09:04;16.80;99.90
46029;DHT22;31763;48.180;7.904;2022-08-20T08:11:32;16.90;99.90
46029;DHT22;31763;48.180;7.904;2022-08-20T08:14:00;16.80;99.90
46029;DHT22;31763;48.180;7.904;2022-08-20T08:16:28;16.80;99.90
46029;DHT22;31763;48.180;7.904;2022-08-20T08:18:58;16.90;99.90
46029;DHT22;31763;48.180;7.904;2022-08-20T08:21:26;16.90;99.90
46029;DHT22;31763;48.180;7.904;2022-08-20T08:23:55;16.80;99.90
46029;DHT22;31763;48.180;7.904;2022-08-20T08:26:22;16.80;99.90
46029;DHT22;31763;48.180;7.904;2022-08-20T08:28:49;16.80;99.90
46029;DHT22;31763;48.180;7.904;2022-08-20T08:31:16;17.00;99.90
46029;DHT22;31763;48.180;7.904;2022-08-20T08:33:43;16.70;99.90
46029;DHT22;31763;48.180;7.904;2022-08-20T08:36:11;16.70;99.90
46029;DHT22;31763;48.180;7.904;2022-08-20T08:38:41;16.90;99.90
46029;DHT22;31763;48.180;7.904;2022-08-20T08:43:39;16.80;99.90
46029;DHT22;31763;48.180;7.904;2022-08-20T08:46:08;17.00;99.90
46029;DHT22;31763;48.180;7.904;2022-08-20T08:48:41;17.00;99.90
46029;DHT22;31763;48.180;7.904;2022-08-20T08:51:11;17.10;99.90
46029;DHT22;31763;48.180;7.904;2022-08-20T08:53:49;17.20;99.90
46029;DHT22;31763;48.180;7.904;2022-08-20T08:56:29;17.20;99.90
46029;DHT22;31763;48.180;7.904;2022-08-20T08:58:57;17.20;99.90
46029;DHT22;31763;48.180;7.904;2022-08-20T09:01:26;17.00;99.90
46029;DHT22;31763;48.180;7.904;2022-08-20T09:04:15;16.90;99.90
46029;DHT22;31763;48.180;7.904;2022-08-20T09:06:47;17.00;99.90
46029;DHT22;31763;48.180;7.904;2022-08-20T09:09:19;17.00;99.90
46029;DHT22;31763;48.180;7.904;2022-08-20T09:11:49;17.00;99.90
46029;DHT22;31763;48.180;7.904;2022-08-20T09:14:18;17.10;99.90
46029;DHT22;31763;48.180;7.904;2022-08-20T09:16:45;17.10;99.90
46029;DHT22;31763;48.180;7.904;2022-08-20T09:19:19;17.00;99.90
46029;DHT22;31763;48.180;7.904;2022-08-20T09:21:46;17.00;99.90
46029;DHT22;31763;48.180;7.904;2022-08-20T09:24:13;17.00;99.90
46029;DHT22;31763;48.180;7.904;2022-08-20T09:26:40;17.20;99.90
46029;DHT22;31763;48.180;7.904;2022-08-20T09:29:07;17.30;99.90
46029;DHT22;31763;48.180;7.904;2022-08-20T09:31:34;17.30;99.90
46029;DHT22;31763;48.180;7.904;2022-08-20T09:34:03;17.30;99.90
46029;DHT22;31763;48.180;7.904;2022-08-20T09:36:30;17.10;99.90
46029;DHT22;31763;48.180;7.904;2022-08-20T09:38:58;17.30;99.90
46029;DHT22;31763;48.180;7.904;2022-08-20T09:41:28;17.30;99.90
46029;DHT22;31763;48.180;7.904;2022-08-20T09:43:55;17.20;99.90
46029;DHT22;31763;48.180;7.904;2022-08-20T09:46:22;17.10;99.90
46029;DHT22;31763;48.180;7.904;2022-08-20T09:48:52;17.20;99.90
46029;DHT22;31763;48.180;7.904;2022-08-20T09:51:20;17.20;99.90
46029;DHT22;31763;48.180;7.904;2022-08-20T09:53:47;17.10;99.90
46029;DHT22;31763;48.180;7.904;2022-08-20T09:56:14;17.20;99.90
46029;DHT22;31763;48.180;7.904;2022-08-20T09:58:46;17.30;99.90
46029;DHT22;31763;48.180;7.904;2022-08-20T10:01:16;17.20;99.90
46029;DHT22;31763;48.180;7.904;2022-08-20T10:03:45;17.50;99.90
46029;DHT22;31763;48.180;7.904;2022-08-20T10:06:17;17.60;99.90
46029;DHT22;31763;48.180;7.904;2022-08-20T10:08:46;17.60;99.90
46029;DHT22;31763;48.180;7.904;2022-08-20T10:11:13;17.70;99.90
46029;DHT22;31763;48.180;7.904;2022-08-20T10:13:40;17.70;99.90
46029;DHT22;31763;48.180;7.904;2022-08-20T10:16:07;17.90;99.90
46029;DHT22;31763;48.180;7.904;2022-08-20T10:18:34;18.00;99.90
46029;DHT22;31763;48.180;7.904;2022-08-20T10:21:01;18.10;99.90
46029;DHT22;31763;48.180;7.904;2022-08-20T10:28:23;18.90;99.90
46029;DHT22;31763;48.180;7.904;2022-08-20T10:30:49;19.20;99.90
46029;DHT22;31763;48.180;7.904;2022-08-20T10:33:16;18.80;99.90
46029;DHT22;31763;48.180;7.904;2022-08-20T10:35:43;19.00;99.90
46029;DHT22;31763;48.180;7.904;2022-08-20T10:38:10;19.40;99.90
46029;DHT22;31763;48.180;7.904;2022-08-20T10:40:36;19.40;99.90
46029;DHT22;31763;48.180;7.904;2022-08-20T10:43:03;19.20;99.90
46029;DHT22;31763;48.180;7.904;2022-08-20T10:45:30;19.70;99.90
46029;DHT22;31763;48.180;7.904;2022-08-20T10:47:57;19.80;99.90
46029;DHT22;31763;48.180;7.904;2022-08-20T10:52:53;20.20;99.90
46029;DHT22;31763;48.180;7.904;2022-08-20T10:55:20;20.50;99.90
46029;DHT22;31763;48.180;7.904;2022-08-20T10:57:47;20.60;99.90
46029;DHT22;31763;48.180;7.904;2022-08-20T11:00:14;20.10;99.90
46029;DHT22;31763;48.180;7.904;2022-08-20T11:02:42;20.10;99.90
46029;DHT22;31763;48.180;7.904;2022-08-20T11:05:09;20.20;99.90
46029;DHT22;31763;48.180;7.904;2022-08-20T11:07:37;20.50;99.90
46029;DHT22;31763;48.180;7.904;2022-08-20T11:10:23;20.50;99.90
46029;DHT22;31763;48.180;7.904;2022-08-20T11:12:50;20.40;99.90
46029;DHT22;31763;48.180;7.904;2022-08-20T11:15:17;20.50;99.90
46029;DHT22;31763;48.180;7.904;2022-08-20T11:17:44;20.20;99.90
46029;DHT22;31763;48.180;7.904;2022-08-20T11:20:12;19.00;99.90
46029;DHT22;31763;48.180;7.904;2022-08-20T11:22:40;19.60;99.90
46029;DHT22;31763;48.180;7.904;2022-08-20T11:25:07;19.60;99.90
46029;DHT22;31763;48.180;7.904;2022-08-20T11:27:45;19.50;99.90
46029;DHT22;31763;48.180;7.904;2022-08-20T11:30:15;19.40;99.90
46029;DHT22;31763;48.180;7.904;2022-08-20T11:32:43;19.20;99.90
46029;DHT22;31763;48.180;7.904;2022-08-20T11:35:10;19.10;99.90
46029;DHT22;31763;48.180;7.904;2022-08-20T11:37:57;19.30;99.90
46029;DHT22;31763;48.180;7.904;2022-08-20T11:40:25;19.50;99.90
46029;DHT22;31763;48.180;7.904;2022-08-20T11:42:52;19.90;99.90
46029;DHT22;31763;48.180;7.904;2022-08-20T11:45:39;20.50;99.90
46029;DHT22;31763;48.180;7.904;2022-08-20T11:48:06;21.30;99.90
46029;DHT22;31763;48.180;7.904;2022-08-20T11:50:32;22.10;99.90
46029;DHT22;31763;48.180;7.904;2022-08-20T11:52:59;21.90;99.90
46029;DHT22;31763;48.180;7.904;2022-08-20T11:55:27;22.10;99.90
46029;DHT22;31763;48.180;7.904;2022-08-20T11:57:56;21.80;99.90
46029;DHT22;31763;48.180;7.904;2022-08-20T12:00:26;21.70;99.90
46029;DHT22;31763;48.180;7.904;2022-08-20T12:03:02;22.10;99.90
46029;DHT22;31763;48.180;7.904;2022-08-20T12:05:34;21.10;99.90
46029;DHT22;31763;48.180;7.904;2022-08-20T12:08:02;21.50;99.90
46029;DHT22;31763;48.180;7.904;2022-08-20T12:10:29;21.90;99.90
46029;DHT22;31763;48.180;7.904;2022-08-20T12:12:57;21.70;99.90
46029;DHT22;31763;48.180;7.904;2022-08-20T12:15:24;21.30;99.90
46029;DHT22;31763;48.180;7.904;2022-08-20T12:17:52;21.00;99.90
46029;DHT22;31763;48.180;7.904;2022-08-20T12:20:20;21.00;99.90
46029;DHT22;31763;48.180;7.904;2022-08-20T12:22:47;21.10;99.90
46029;DHT22;31763;48.180;7.904;2022-08-20T12:25:14;21.60;99.90
46029;DHT22;31763;48.180;7.904;2022-08-20T12:27:41;22.30;99.90
46029;DHT22;31763;48.180;7.904;2022-08-20T12:30:10;23.00;99.90
46029;DHT22;31763;48.180;7.904;2022-08-20T12:32:39;23.20;99.90
46029;DHT22;31763;48.180;7.904;2022-08-20T12:35:06;23.10;99.90
46029;DHT22;31763;48.180;7.904;2022-08-20T12:37:33;22.90;99.90
46029;DHT22;31763;48.180;7.904;2022-08-20T12:40:02;22.10;99.90
46029;DHT22;31763;48.180;7.904;2022-08-20T12:42:31;21.30;99.90
46029;DHT22;31763;48.180;7.904;2022-08-20T12:44:58;20.30;99.90
46029;DHT22;31763;48.180;7.904;2022-08-20T12:47:26;19.70;99.90
46029;DHT22;31763;48.180;7.904;2022-08-20T12:49:58;19.50;99.90
46029;DHT22;31763;48.180;7.904;2022-08-20T12:52:27;19.40;99.90
46029;DHT22;31763;48.180;7.904;2022-08-20T12:54:58;19.30;99.90
46029;DHT22;31763;48.180;7.904;2022-08-20T12:57:40;19.30;99.90
46029;DHT22;31763;48.180;7.904;2022-08-20T13:00:22;19.50;99.90
46029;DHT22;31763;48.180;7.904;2022-08-20T13:03:11;19.50;99.90
46029;DHT22;31763;48.180;7.904;2022-08-20T13:05:45;19.60;99.90
46029;DHT22;31763;48.180;7.904;2022-08-20T13:08:14;19.70;99.90
46029;DHT22;31763;48.180;7.904;2022-08-20T13:10:43;19.90;99.90
46029;DHT22;31763;48.180;7.904;2022-08-20T13:13:23;20.40;99.90
